Time;durP1;ratioP1;P1;durP2;ratioP2;P2;SDS_P1;SDS_P2;PMS_P1;PMS_P2;Temp;Humidity;BMP_temperature;BMP_pressure;BME280_temperature;BME280_humidity;BME280_pressure;Samples;Min_cycle;Max_cycle;Signal;HPM_P1;HPM_P2
2023/12/28 00:00:09;;;;;;;;;;;;;;;19.72;48.32;100569.41;2061741;28;6135;-66
2023/12/28 00:01:10;;;;;;;;;;;;;;;19.70;48.19;100567.19;2063724;28;2070;-66
2023/12/28 00:02:13;;;;;;;;;;;;;;;19.71;48.31;100562.19;2060183;28;1869;-66
2023/12/28 00:03:14;;;;;;;;;;;;;;;19.70;48.23;100567.19;2060729;28;2713;-66
2023/12/28 00:04:16;;;;;;;;;;;;;;;19.70;48.17;100558.56;2059410;28;1919;-66
2023/12/28 00:05:18;;;;;;;;;;;;;;;19.69;48.15;100559.22;2057729;28;2544;-66
2023/12/28 00:06:19;;;;;;;;;;;;;;;19.69;48.26;100559.22;2059459;28;2542;-66
2023/12/28 00:07:20;;;;;;;;;;;;;;;19.69;48.12;100550.59;2058863;28;2094;-66
2023/12/28 00:08:22;;;;;;;;;;;;;;;19.68;48.09;100544.09;2058275;28;2451;-66
2023/12/28 00:09:23;;;;;;;;;;;;;;;19.67;48.04;100540.47;2061985;28;2672;-66
2023/12/28 00:10:25;;;;;;;;;;;;;;;19.67;48.22;100540.47;2063899;28;2537;-66
2023/12/28 00:11:27;;;;;;;;;;;;;;;19.67;48.02;100534.72;2053517;28;2460;-67
2023/12/28 00:12:28;;;;;;;;;;;;;;;19.67;48.27;100523.22;2052441;28;1761;-66
2023/12/28 00:13:29;;;;;;;;;;;;;;;19.67;48.20;100533.97;2060778;28;2104;-66
2023/12/28 00:14:31;;;;;;;;;;;;;;;19.66;48.20;100527.50;2061615;28;2435;-66
2023/12/28 00:15:32;;;;;;;;;;;;;;;19.66;48.13;100539.00;2060723;28;2779;-66
2023/12/28 00:16:34;;;;;;;;;;;;;;;19.66;48.06;100541.13;2060789;28;2146;-66
2023/12/28 00:17:35;;;;;;;;;;;;;;;19.67;48.04;100528.97;2059987;28;2457;-66
2023/12/28 00:18:37;;;;;;;;;;;;;;;19.66;48.08;100539.00;2062432;28;1766;-66
2023/12/28 00:19:38;;;;;;;;;;;;;;;19.67;48.09;100540.47;2060611;28;1627;-66
2023/12/28 00:20:40;;;;;;;;;;;;;;;19.67;47.98;100536.84;2059526;28;1675;-66
2023/12/28 00:21:41;;;;;;;;;;;;;;;19.67;47.93;100540.47;2062324;28;1966;-66
2023/12/28 00:22:42;;;;;;;;;;;;;;;19.68;47.85;100532.59;2058481;28;2128;-66
2023/12/28 00:23:44;;;;;;;;;;;;;;;19.68;47.82;100535.47;2061113;28;2480;-66
2023/12/28 00:24:45;;;;;;;;;;;;;;;19.69;47.76;100536.25;2061198;28;2049;-66
2023/12/28 00:25:47;;;;;;;;;;;;;;;19.69;47.80;100533.38;2056305;28;2492;-66
2023/12/28 00:26:48;;;;;;;;;;;;;;;19.67;47.85;100514.59;2058905;28;2131;-67
2023/12/28 00:27:50;;;;;;;;;;;;;;;19.69;47.84;100524.75;2062557;28;2036;-66
2023/12/28 00:28:51;;;;;;;;;;;;;;;19.69;47.91;100524.75;2061422;28;2316;-66
2023/12/28 00:29:52;;;;;;;;;;;;;;;19.69;47.85;100530.50;2060935;28;2647;-66
2023/12/28 00:30:54;;;;;;;;;;;;;;;19.70;47.87;100520.47;2062100;28;6240;-66
2023/12/28 00:31:55;;;;;;;;;;;;;;;19.69;47.99;100513.25;2061971;28;2892;-66
2023/12/28 00:32:57;;;;;;;;;;;;;;;19.71;48.19;100516.22;2059902;28;2145;-66
2023/12/28 00:33:58;;;;;;;;;;;;;;;19.70;48.04;100523.34;2061606;28;2563;-66
2023/12/28 00:35:00;;;;;;;;;;;;;;;19.71;48.06;100521.97;2059844;28;2593;-66
2023/12/28 00:36:01;;;;;;;;;;;;;;;19.72;48.03;100524.16;2060547;28;2163;-66
2023/12/28 00:37:02;;;;;;;;;;;;;;;19.72;48.09;100517.69;2059465;28;2558;-66
2023/12/28 00:38:04;;;;;;;;;;;;;;;19.72;47.91;100523.44;2061077;28;2185;-66
2023/12/28 00:39:05;;;;;;;;;;;;;;;19.72;48.08;100511.94;2061682;28;2089;-66
2023/12/28 00:40:07;;;;;;;;;;;;;;;19.70;48.07;100506.88;2059493;28;2520;-66
2023/12/28 00:41:08;;;;;;;;;;;;;;;19.72;48.12;100506.19;2050625;28;2582;-66
2023/12/28 00:42:10;;;;;;;;;;;;;;;19.72;48.18;100509.81;2055527;28;2443;-66
2023/12/28 00:43:11;;;;;;;;;;;;;;;19.72;48.11;100511.94;2060923;28;2574;-66
2023/12/28 00:44:12;;;;;;;;;;;;;;;19.72;48.02;100506.94;2064580;28;1915;-66
2023/12/28 00:45:14;;;;;;;;;;;;;;;19.73;48.16;100499.06;2058682;28;2454;-66
2023/12/28 00:46:15;;;;;;;;;;;;;;;19.70;48.15;100508.97;2060887;28;2602;-66
2023/12/28 00:47:16;;;;;;;;;;;;;;;19.71;48.16;100507.59;2058215;28;2518;-66
2023/12/28 00:48:18;;;;;;;;;;;;;;;19.72;48.22;100506.19;2059560;28;2489;-66
2023/12/28 00:49:19;;;;;;;;;;;;;;;19.72;48.31;100500.47;2059541;28;2500;-66
2023/12/28 00:50:21;;;;;;;;;;;;;;;19.71;48.28;100504.72;2058258;28;2557;-66
2023/12/28 00:51:22;;;;;;;;;;;;;;;19.70;48.35;100497.50;2058906;28;2095;-66
2023/12/28 00:52:24;;;;;;;;;;;;;;;19.71;48.29;100507.59;2058792;28;2078;-66
2023/12/28 00:53:26;;;;;;;;;;;;;;;19.71;48.29;100513.34;2054865;28;2153;-66
2023/12/28 00:54:27;;;;;;;;;;;;;;;19.70;48.21;100518.38;2060529;28;2100;-66
2023/12/28 00:55:29;;;;;;;;;;;;;;;19.70;48.26;100524.09;2061709;28;1780;-66
2023/12/28 00:56:30;;;;;;;;;;;;;;;19.71;48.26;100533.47;2063576;28;1441;-66
2023/12/28 00:57:32;;;;;;;;;;;;;;;19.71;48.38;100530.59;2059401;28;2129;-66
2023/12/28 00:58:33;;;;;;;;;;;;;;;19.70;48.34;100511.84;2059368;28;2653;-66
2023/12/28 00:59:34;;;;;;;;;;;;;;;19.70;48.22;100520.47;2060750;28;2506;-66
2023/12/28 01:00:36;;;;;;;;;;;;;;;19.70;48.31;100524.09;2058069;28;6281;-66
2023/12/28 01:01:37;;;;;;;;;;;;;;;19.70;48.30;100514.72;2059286;28;2262;-66
2023/12/28 01:02:39;;;;;;;;;;;;;;;19.69;48.10;100510.38;2055983;28;2577;-66
2023/12/28 01:03:40;;;;;;;;;;;;;;;19.71;48.26;100516.22;2062872;28;2133;-66
2023/12/28 01:04:42;;;;;;;;;;;;;;;19.69;48.52;100513.25;2059209;28;2390;-66
2023/12/28 01:05:47;;;;;;;;;;;;;;;19.70;48.40;100506.09;2061087;28;2089;-66
2023/12/28 01:06:48;;;;;;;;;;;;;;;19.70;48.19;100498.25;2059719;28;2363;-66
2023/12/28 01:07:50;;;;;;;;;;;;;;;19.69;48.28;100508.25;2059107;28;2492;-66
2023/12/28 01:08:51;;;;;;;;;;;;;;;19.69;48.32;100510.38;2060240;28;2553;-66
2023/12/28 01:09:53;;;;;;;;;;;;;;;19.70;48.42;100520.47;2059490;28;2518;-66
2023/12/28 01:10:54;;;;;;;;;;;;;;;19.68;48.23;100524.00;2058123;28;2691;-66
2023/12/28 01:11:55;;;;;;;;;;;;;;;19.69;48.16;100521.88;2060009;28;2496;-66
2023/12/28 01:12:57;;;;;;;;;;;;;;;19.67;48.41;100517.47;2057970;28;2516;-65
2023/12/28 01:13:59;;;;;;;;;;;;;;;19.69;48.32;100519.00;2059766;28;2034;-66
2023/12/28 01:15:00;;;;;;;;;;;;;;;19.67;48.12;100511.75;2057714;28;1634;-66
2023/12/28 01:16:01;;;;;;;;;;;;;;;19.68;48.17;100506.75;2062610;28;2461;-66
2023/12/28 01:17:03;;;;;;;;;;;;;;;19.68;48.06;100512.50;2061178;28;2078;-66
2023/12/28 01:18:04;;;;;;;;;;;;;;;19.67;48.01;100517.47;2060895;28;2034;-66
2023/12/28 01:19:06;;;;;;;;;;;;;;;19.68;48.00;100524.00;2061042;28;1931;-66
2023/12/28 01:20:08;;;;;;;;;;;;;;;19.67;48.04;100511.75;2061364;28;2562;-66
2023/12/28 01:21:09;;;;;;;;;;;;;;;19.67;48.00;100503.13;2058282;28;2533;-66
2023/12/28 01:22:11;;;;;;;;;;;;;;;19.67;48.09;100511.75;2059867;28;2137;-66
2023/12/28 01:23:12;;;;;;;;;;;;;;;19.66;47.96;100516.00;2060667;28;2322;-66
2023/12/28 01:24:13;;;;;;;;;;;;;;;19.66;47.83;100507.41;2059760;28;2190;-66
2023/12/28 01:25:15;;;;;;;;;;;;;;;19.65;47.90;100520.28;2059834;28;2124;-66
2023/12/28 01:26:19;;;;;;;;;;;;;;;19.66;47.81;100530.38;2061490;28;2232;-66
2023/12/28 01:27:20;;;;;;;;;;;;;;;19.65;47.76;100520.28;2059441;28;2042;-66
2023/12/28 01:28:22;;;;;;;;;;;;;;;19.66;47.71;100516.00;2059390;28;2483;-66
2023/12/28 01:29:23;;;;;;;;;;;;;;;19.66;47.88;100524.63;2059573;28;2513;-66
2023/12/28 01:30:26;;;;;;;;;;;;;;;19.65;47.77;100513.78;2057751;28;6340;-66
2023/12/28 01:31:27;;;;;;;;;;;;;;;19.65;47.71;100514.53;2061240;28;2271;-65
2023/12/28 01:32:29;;;;;;;;;;;;;;;19.65;47.79;100514.53;2063306;28;2098;-65
2023/12/28 01:33:30;;;;;;;;;;;;;;;19.64;47.79;100507.31;2063514;28;2138;-65
2023/12/28 01:34:32;;;;;;;;;;;;;;;19.63;47.89;100496.47;2057938;28;2478;-66
2023/12/28 01:35:33;;;;;;;;;;;;;;;19.63;47.88;100494.34;2062941;28;1671;-66
2023/12/28 01:36:34;;;;;;;;;;;;;;;19.64;47.94;100500.81;2061611;28;1690;-65
2023/12/28 01:37:36;;;;;;;;;;;;;;;19.63;47.91;100500.09;2065581;28;1753;-66
2023/12/28 01:38:37;;;;;;;;;;;;;;;19.62;47.81;100510.09;2053946;28;2563;-66
2023/12/28 01:39:39;;;;;;;;;;;;;;;19.63;47.83;100494.34;2052557;28;2679;-66
2023/12/28 01:40:44;;;;;;;;;;;;;;;19.62;47.65;100498.59;2057191;28;2685;-66
2023/12/28 01:41:46;;;;;;;;;;;;;;;19.62;47.75;100481.38;2058758;28;2729;-66
2023/12/28 01:42:47;;;;;;;;;;;;;;;19.62;47.63;100492.84;2059891;28;2055;-66
2023/12/28 01:43:49;;;;;;;;;;;;;;;19.63;47.76;100493.59;2059085;28;2481;-65
2023/12/28 01:44:50;;;;;;;;;;;;;;;19.61;47.81;100490.66;2060665;28;1981;-65
2023/12/28 01:45:52;;;;;;;;;;;;;;;19.60;47.86;100489.88;2063586;28;2328;-66
2023/12/28 01:46:53;;;;;;;;;;;;;;;19.61;47.85;100484.91;2060761;28;1634;-66
2023/12/28 01:47:55;;;;;;;;;;;;;;;19.61;47.83;100484.91;2060064;28;2097;-65
2023/12/28 01:48:57;;;;;;;;;;;;;;;19.60;47.80;100472.66;2059530;28;2167;-65
2023/12/28 01:49:59;;;;;;;;;;;;;;;19.60;47.91;100466.91;2058805;28;2347;-66
2023/12/28 01:51:00;;;;;;;;;;;;;;;19.60;47.84;100454.69;2058605;28;2705;-66
2023/12/28 01:52:02;;;;;;;;;;;;;;;19.59;47.80;100453.94;2057203;28;1600;-66
2023/12/28 01:53:03;;;;;;;;;;;;;;;19.59;47.83;100448.22;2058057;28;2403;-65
2023/12/28 01:54:05;;;;;;;;;;;;;;;19.58;47.78;100440.97;2062802;28;2076;-66
2023/12/28 01:55:06;;;;;;;;;;;;;;;19.58;47.83;100440.25;2060358;28;2455;-66
2023/12/28 01:56:08;;;;;;;;;;;;;;;19.58;47.78;100420.88;2060432;28;1873;-68
2023/12/28 01:57:09;;;;;;;;;;;;;;;19.57;47.88;100416.53;2058235;28;1842;-66
2023/12/28 01:58:11;;;;;;;;;;;;;;;19.56;47.98;100417.94;2057655;28;2327;-66
2023/12/28 01:59:12;;;;;;;;;;;;;;;19.56;47.97;100415.06;2062000;28;2450;-66
2023/12/28 02:00:13;;;;;;;;;;;;;;;19.57;48.00;100436.63;2061668;28;6499;-65
2023/12/28 02:01:15;;;;;;;;;;;;;;;19.57;47.87;100438.78;2061405;28;2286;-66
2023/12/28 02:02:17;;;;;;;;;;;;;;;19.57;47.95;100451.00;2059931;28;2549;-66
2023/12/28 02:03:18;;;;;;;;;;;;;;;19.58;48.05;100451.72;2061778;28;1596;-66
2023/12/28 02:04:26;;;;;;;;;;;;;;;19.57;48.01;100459.59;2058725;28;2230;-66
2023/12/28 02:05:27;;;;;;;;;;;;;;;19.57;48.00;100462.47;2062920;28;2074;-66
2023/12/28 02:06:29;;;;;;;;;;;;;;;19.56;48.01;100478.25;2062421;28;1956;-66
2023/12/28 02:07:30;;;;;;;;;;;;;;;19.57;47.97;100485.47;2058377;28;1956;-66
2023/12/28 02:08:32;;;;;;;;;;;;;;;19.56;47.94;100484.00;2060883;28;2567;-65
2023/12/28 02:09:33;;;;;;;;;;;;;;;19.56;48.02;100481.13;2057199;28;2506;-65
2023/12/28 02:10:35;;;;;;;;;;;;;;;19.55;48.07;100485.38;2061304;28;2192;-65
2023/12/28 02:11:36;;;;;;;;;;;;;;;19.56;48.04;100484.00;2061715;28;2151;-65
2023/12/28 02:12:37;;;;;;;;;;;;;;;19.55;48.01;100488.25;2057465;28;2442;-66
2023/12/28 02:13:39;;;;;;;;;;;;;;;19.55;47.90;100502.59;2058857;28;2083;-66
2023/12/28 02:14:40;;;;;;;;;;;;;;;19.55;47.88;100488.25;2062315;28;1705;-66
2023/12/28 02:15:42;;;;;;;;;;;;;;;19.55;47.98;100502.59;2061845;28;2548;-66
2023/12/28 02:16:46;;;;;;;;;;;;;;;19.54;47.91;100494.63;2052024;28;1632;-66
2023/12/28 02:17:59;;;;;;;;;;;;;;;19.54;47.76;100486.78;2052823;28;2520;-66
2023/12/28 02:19:03;;;;;;;;;;;;;;;19.53;47.96;100493.88;2053413;28;2491;-66
2023/12/28 02:20:06;;;;;;;;;;;;;;;19.53;47.82;100502.50;2052377;28;2220;-66
2023/12/28 02:21:07;;;;;;;;;;;;;;;19.53;48.00;100502.50;2062350;28;2377;-66
2023/12/28 02:22:09;;;;;;;;;;;;;;;19.53;47.94;100499.63;2059212;28;2612;-65
2023/12/28 02:23:10;;;;;;;;;;;;;;;19.53;47.92;100502.50;2052492;28;2175;-65
2023/12/28 02:24:12;;;;;;;;;;;;;;;19.53;47.85;100502.50;2051808;28;2091;-65
2023/12/28 02:25:13;;;;;;;;;;;;;;;19.53;47.99;100505.38;2059759;28;2059;-66
2023/12/28 02:26:15;;;;;;;;;;;;;;;19.53;47.95;100519.72;2054982;28;2493;-66
2023/12/28 02:27:16;;;;;;;;;;;;;;;19.53;47.87;100519.00;2058304;28;2141;-66
2023/12/28 02:28:18;;;;;;;;;;;;;;;19.53;47.94;100513.25;2057468;28;2573;-66
2023/12/28 02:29:19;;;;;;;;;;;;;;;19.53;47.77;100513.25;2055491;28;2202;-66
2023/12/28 02:30:28;;;;;;;;;;;;;;;19.51;47.87;100505.28;2054444;28;6138;-66
2023/12/28 02:31:32;;;;;;;;;;;;;;;19.51;47.77;100499.53;2051525;28;2460;-66
2023/12/28 02:32:42;;;;;;;;;;;;;;;19.52;47.81;100497.44;2052932;28;2401;-66
2023/12/28 02:33:48;;;;;;;;;;;;;;;19.50;47.71;100492.31;2061184;28;2106;-66
2023/12/28 02:34:50;;;;;;;;;;;;;;;19.51;47.75;100502.41;2059411;28;2447;-66
2023/12/28 02:35:55;;;;;;;;;;;;;;;19.51;47.86;100493.78;2054374;28;1703;-65
2023/12/28 02:36:56;;;;;;;;;;;;;;;19.50;47.84;100489.47;2053611;28;2543;-65
2023/12/28 02:37:59;;;;;;;;;;;;;;;19.50;47.81;100486.59;2065408;28;2096;-66
2023/12/28 02:39:03;;;;;;;;;;;;;;;19.50;47.65;100477.97;2059011;28;2510;-65
2023/12/28 02:40:04;;;;;;;;;;;;;;;19.49;47.78;100485.09;2058332;28;2819;-66
2023/12/28 02:41:06;;;;;;;;;;;;;;;19.49;47.87;100484.34;2057021;28;2639;-66
2023/12/28 02:42:07;;;;;;;;;;;;;;;19.50;47.84;100491.59;2059498;28;2612;-66
2023/12/28 02:43:09;;;;;;;;;;;;;;;19.49;47.78;100495.84;2055779;28;2187;-66
2023/12/28 02:44:10;;;;;;;;;;;;;;;19.49;47.67;100496.56;2058404;28;2220;-65
2023/12/28 02:45:11;;;;;;;;;;;;;;;19.49;47.63;100490.09;2059153;28;2473;-65
2023/12/28 02:46:13;;;;;;;;;;;;;;;19.49;47.71;100490.09;2060608;28;2608;-66
2023/12/28 02:47:14;;;;;;;;;;;;;;;19.49;47.67;100496.56;2059297;28;2426;-65
2023/12/28 02:48:16;;;;;;;;;;;;;;;19.48;47.66;100500.84;2056141;28;2454;-66
2023/12/28 02:49:17;;;;;;;;;;;;;;;19.47;47.77;100499.38;2058639;28;2549;-66
2023/12/28 02:50:20;;;;;;;;;;;;;;;19.47;47.79;100493.63;2060187;28;2151;-66
2023/12/28 02:51:22;;;;;;;;;;;;;;;19.46;47.67;100480.66;2059549;28;2082;-66
2023/12/28 02:52:23;;;;;;;;;;;;;;;19.47;47.69;100490.78;2057766;28;2108;-66
2023/12/28 02:53:24;;;;;;;;;;;;;;;19.47;47.68;100487.91;2056203;28;2618;-66
2023/12/28 02:54:26;;;;;;;;;;;;;;;19.46;47.71;100474.91;2060365;28;2520;-66
2023/12/28 02:55:27;;;;;;;;;;;;;;;19.47;47.64;100470.66;2058121;28;2074;-65
2023/12/28 02:56:29;;;;;;;;;;;;;;;19.46;47.56;100474.91;2059845;28;2091;-66
2023/12/28 02:57:31;;;;;;;;;;;;;;;19.46;47.68;100474.91;2063140;28;1667;-66
2023/12/28 02:58:32;;;;;;;;;;;;;;;19.46;47.63;100469.91;2058332;28;2786;-66
2023/12/28 02:59:33;;;;;;;;;;;;;;;19.45;47.57;100470.56;2056551;28;2790;-66
2023/12/28 03:00:35;;;;;;;;;;;;;;;19.47;47.64;100473.53;2059488;28;6491;-65
2023/12/28 03:01:36;;;;;;;;;;;;;;;19.46;47.58;100480.66;2060437;28;1908;-66
2023/12/28 03:02:38;;;;;;;;;;;;;;;19.46;47.64;100492.88;2060255;28;2159;-66
2023/12/28 03:03:39;;;;;;;;;;;;;;;19.46;47.58;100480.66;2058771;28;2129;-65
2023/12/28 03:04:41;;;;;;;;;;;;;;;19.45;47.52;100485.66;2059369;28;2135;-66
2023/12/28 03:05:42;;;;;;;;;;;;;;;19.46;47.57;100483.53;2059331;28;2101;-66
2023/12/28 03:06:46;;;;;;;;;;;;;;;19.45;47.43;100479.94;2055060;28;2652;-66
2023/12/28 03:07:47;;;;;;;;;;;;;;;19.45;47.50;100490.69;2056661;28;2589;-66
2023/12/28 03:08:49;;;;;;;;;;;;;;;19.45;47.37;100487.81;2059660;28;2442;-65
2023/12/28 03:09:50;;;;;;;;;;;;;;;19.44;47.57;100481.31;2057000;28;2558;-66
2023/12/28 03:10:52;;;;;;;;;;;;;;;19.45;47.42;100484.94;2060091;28;2094;-65
2023/12/28 03:11:54;;;;;;;;;;;;;;;19.45;47.40;100484.94;2057753;28;1690;-65
2023/12/28 03:12:55;;;;;;;;;;;;;;;19.45;47.53;100484.94;2057650;28;2144;-65
2023/12/28 03:13:57;;;;;;;;;;;;;;;19.44;47.53;100486.31;2057515;28;2048;-65
2023/12/28 03:14:58;;;;;;;;;;;;;;;19.43;47.46;100494.19;2061033;28;2269;-66
2023/12/28 03:16:00;;;;;;;;;;;;;;;19.43;47.52;100481.97;2058208;28;2455;-66
2023/12/28 03:17:01;;;;;;;;;;;;;;;19.43;47.58;100487.72;2060929;28;2089;-65
2023/12/28 03:18:03;;;;;;;;;;;;;;;19.44;47.57;100497.78;2062525;28;1702;-65
2023/12/28 03:19:05;;;;;;;;;;;;;;;19.43;47.39;100488.44;2058723;28;2494;-66
2023/12/28 03:20:06;;;;;;;;;;;;;;;19.43;47.40;100494.19;2059765;28;2470;-66
2023/12/28 03:21:08;;;;;;;;;;;;;;;19.44;47.32;100489.19;2059047;28;2142;-66
2023/12/28 03:22:09;;;;;;;;;;;;;;;19.43;47.39;100496.31;2059700;28;1913;-66
2023/12/28 03:23:11;;;;;;;;;;;;;;;19.43;47.38;100493.44;2057847;28;2338;-74
2023/12/28 03:24:12;;;;;;;;;;;;;;;19.42;47.41;100491.97;2059589;28;2114;-66
2023/12/28 03:25:14;;;;;;;;;;;;;;;19.43;47.40;100487.72;2061909;28;2104;-66
2023/12/28 03:26:15;;;;;;;;;;;;;;;19.42;47.33;100491.97;2060682;28;2280;-66
2023/12/28 03:27:17;;;;;;;;;;;;;;;19.42;47.38;100486.97;2056902;28;2509;-68
2023/12/28 03:28:20;;;;;;;;;;;;;;;19.42;47.40;100486.22;2061941;28;2674;-68
2023/12/28 03:29:21;;;;;;;;;;;;;;;19.42;47.31;100477.59;2058493;28;2457;-68
2023/12/28 03:30:22;;;;;;;;;;;;;;;19.42;47.42;100483.34;2056369;28;6434;-68
2023/12/28 03:31:24;;;;;;;;;;;;;;;19.42;47.36;100486.22;2056022;28;2252;-69
2023/12/28 03:32:26;;;;;;;;;;;;;;;19.42;47.35;100494.81;2058422;28;2766;-69
2023/12/28 03:33:27;;;;;;;;;;;;;;;19.42;47.31;100498.47;2058026;28;2081;-68
2023/12/28 03:34:30;;;;;;;;;;;;;;;19.42;47.34;100491.97;2057884;28;2454;-68
2023/12/28 03:35:31;;;;;;;;;;;;;;;19.42;47.27;100486.22;2058790;28;2260;-68
2023/12/28 03:36:33;;;;;;;;;;;;;;;19.41;47.23;100488.34;2060624;28;2292;-68
2023/12/28 03:37:34;;;;;;;;;;;;;;;19.41;47.29;100494.09;2059918;28;2120;-68
2023/12/28 03:38:36;;;;;;;;;;;;;;;19.42;47.27;100506.31;2059956;28;2548;-68
2023/12/28 03:39:37;;;;;;;;;;;;;;;19.41;47.27;100513.47;2059322;28;1749;-69
2023/12/28 03:40:38;;;;;;;;;;;;;;;19.42;47.10;100509.19;2048406;28;2466;-70
2023/12/28 03:41:40;;;;;;;;;;;;;;;19.43;47.15;100504.94;2050085;28;1989;-68
2023/12/28 03:42:41;;;;;;;;;;;;;;;19.43;47.08;100502.06;2059360;28;2756;-68
2023/12/28 03:43:43;;;;;;;;;;;;;;;19.44;47.03;100507.13;2056893;28;2102;-68
2023/12/28 03:44:44;;;;;;;;;;;;;;;19.45;47.11;100513.66;2057699;28;2195;-68
2023/12/28 03:45:46;;;;;;;;;;;;;;;19.45;47.24;100507.91;2057384;28;2520;-68
2023/12/28 03:46:47;;;;;;;;;;;;;;;19.44;47.15;100512.88;2059560;28;2194;-69
2023/12/28 03:47:51;;;;;;;;;;;;;;;19.44;47.36;100507.13;2062912;28;1836;-68
2023/12/28 03:48:53;;;;;;;;;;;;;;;19.44;47.46;100507.13;2060011;28;2030;-68
2023/12/28 03:49:56;;;;;;;;;;;;;;;19.45;47.57;100519.38;2059590;28;2514;-68
2023/12/28 03:50:58;;;;;;;;;;;;;;;19.45;47.57;100513.66;2055822;28;2478;-68
2023/12/28 03:51:59;;;;;;;;;;;;;;;19.46;47.52;100515.13;2059118;28;2557;-69
2023/12/28 03:53:01;;;;;;;;;;;;;;;19.47;47.48;100505.13;2057615;28;2255;-68
2023/12/28 03:54:02;;;;;;;;;;;;;;;19.46;47.53;100504.38;2058898;28;2537;-68
2023/12/28 03:55:04;;;;;;;;;;;;;;;19.46;47.52;100503.63;2061566;28;2133;-68
2023/12/28 03:56:05;;;;;;;;;;;;;;;19.48;47.62;100508.72;2058794;28;2161;-69
2023/12/28 03:57:07;;;;;;;;;;;;;;;19.49;47.60;100507.31;2060152;28;1905;-68
2023/12/28 03:58:08;;;;;;;;;;;;;;;19.48;47.60;100518.09;2059023;28;2439;-68
2023/12/28 03:59:10;;;;;;;;;;;;;;;19.49;47.67;100513.81;2049196;28;2511;-68
2023/12/28 04:00:11;;;;;;;;;;;;;;;19.48;47.53;100489.38;2048049;28;6134;-68
2023/12/28 04:01:13;;;;;;;;;;;;;;;19.49;47.64;100495.84;2059137;28;2177;-68
2023/12/28 04:02:14;;;;;;;;;;;;;;;19.48;47.66;100486.50;2058886;28;2132;-69
2023/12/28 04:03:16;;;;;;;;;;;;;;;19.49;47.73;100496.56;2057968;28;2177;-68
2023/12/28 04:04:18;;;;;;;;;;;;;;;19.48;47.69;100495.09;2058115;28;2525;-68
2023/12/28 04:05:19;;;;;;;;;;;;;;;19.49;47.84;100495.84;2059294;28;2118;-68
2023/12/28 04:06:21;;;;;;;;;;;;;;;19.49;47.87;100498.72;2058903;28;2108;-69
2023/12/28 04:07:22;;;;;;;;;;;;;;;19.48;47.82;100500.84;2059888;28;2142;-68
2023/12/28 04:08:24;;;;;;;;;;;;;;;19.49;47.87;100492.97;2057478;28;2620;-68
2023/12/28 04:09:25;;;;;;;;;;;;;;;19.49;47.90;100493.69;2058863;28;2566;-68
2023/12/28 04:10:31;;;;;;;;;;;;;;;19.50;47.95;100492.31;2059230;28;2124;-68
2023/12/28 04:11:33;;;;;;;;;;;;;;;19.50;47.93;100498.06;2058842;28;2165;-68
2023/12/28 04:12:34;;;;;;;;;;;;;;;19.50;47.92;100503.81;2056784;28;2632;-68
2023/12/28 04:13:36;;;;;;;;;;;;;;;19.50;47.92;100515.31;2059979;28;2127;-69
2023/12/28 04:14:37;;;;;;;;;;;;;;;19.51;47.97;100519.66;2058449;28;1667;-68
2023/12/28 04:15:41;;;;;;;;;;;;;;;19.51;47.79;100528.25;2057704;28;2423;-69
2023/12/28 04:16:42;;;;;;;;;;;;;;;19.51;47.90;100530.41;2060538;28;2104;-68
2023/12/28 04:17:43;;;;;;;;;;;;;;;19.50;47.95;100521.03;2058672;28;1576;-70
2023/12/28 04:18:45;;;;;;;;;;;;;;;19.50;47.99;100526.78;2060709;28;1661;-69
2023/12/28 04:19:47;;;;;;;;;;;;;;;19.49;47.99;100519.56;2061186;28;2458;-68
2023/12/28 04:20:48;;;;;;;;;;;;;;;19.50;48.07;100523.19;2058014;28;1565;-68
2023/12/28 04:21:50;;;;;;;;;;;;;;;19.50;47.96;100529.66;2058223;28;1984;-68
2023/12/28 04:22:51;;;;;;;;;;;;;;;19.49;47.96;100525.28;2058692;28;2566;-69
2023/12/28 04:23:53;;;;;;;;;;;;;;;19.50;48.00;100526.06;2059836;28;2189;-68
2023/12/28 04:24:54;;;;;;;;;;;;;;;19.50;48.18;100515.31;2059847;28;2104;-68
2023/12/28 04:25:55;;;;;;;;;;;;;;;19.49;48.26;100522.41;2057350;28;2517;-68
2023/12/28 04:26:57;;;;;;;;;;;;;;;19.49;48.17;100525.28;2057469;28;2546;-69
2023/12/28 04:27:58;;;;;;;;;;;;;;;19.50;48.40;100528.94;2051176;28;2473;-68
2023/12/28 04:29:00;;;;;;;;;;;;;;;19.50;48.10;100521.03;2052438;28;2146;-68
2023/12/28 04:30:01;;;;;;;;;;;;;;;19.51;48.21;100524.66;2057836;28;2111;-68
2023/12/28 04:31:06;;;;;;;;;;;;;;;19.50;48.18;100535.41;2047537;28;6104;-68
2023/12/28 04:32:07;;;;;;;;;;;;;;;19.51;48.25;100541.88;2051711;28;2554;-68
2023/12/28 04:33:09;;;;;;;;;;;;;;;19.51;48.29;100533.28;2057786;28;2620;-68
2023/12/28 04:34:10;;;;;;;;;;;;;;;19.51;48.29;100544.75;2058445;28;2213;-68
2023/12/28 04:35:12;;;;;;;;;;;;;;;19.51;48.37;100536.88;2058742;28;2161;-69
2023/12/28 04:36:13;;;;;;;;;;;;;;;19.51;48.25;100533.28;2056672;28;2350;-68
2023/12/28 04:37:14;;;;;;;;;;;;;;;19.51;48.33;100528.25;2060104;28;2184;-68
2023/12/28 04:38:16;;;;;;;;;;;;;;;19.51;48.23;100522.50;2060533;28;2051;-68
2023/12/28 04:39:17;;;;;;;;;;;;;;;19.52;48.20;100517.53;2057049;28;2388;-68
2023/12/28 04:40:19;;;;;;;;;;;;;;;19.52;48.21;100524.00;2058440;28;2117;-69
2023/12/28 04:41:20;;;;;;;;;;;;;;;19.53;48.30;100522.59;2060652;28;2464;-68
2023/12/28 04:42:22;;;;;;;;;;;;;;;19.55;48.33;100519.81;2059339;28;2074;-68
2023/12/28 04:43:23;;;;;;;;;;;;;;;19.55;48.26;100519.81;2063256;28;1801;-68
2023/12/28 04:44:26;;;;;;;;;;;;;;;19.55;48.41;100516.97;2060539;28;1802;-69
2023/12/28 04:45:27;;;;;;;;;;;;;;;19.56;48.42;100515.56;2059959;28;2627;-68
2023/12/28 04:46:29;;;;;;;;;;;;;;;19.57;48.49;100530.69;2061850;28;2152;-69
2023/12/28 04:47:30;;;;;;;;;;;;;;;19.58;48.53;100532.16;2059076;28;2171;-68
2023/12/28 04:48:32;;;;;;;;;;;;;;;19.57;48.67;100537.16;2060203;28;2127;-69
2023/12/28 04:49:33;;;;;;;;;;;;;;;19.58;48.59;100537.88;2061567;28;2073;-69
2023/12/28 04:50:35;;;;;;;;;;;;;;;19.58;48.43;100529.28;2060484;28;2139;-68
2023/12/28 04:51:43;;;;;;;;;;;;;;;19.58;48.50;100532.16;2061775;28;2140;-69
2023/12/28 04:52:45;;;;;;;;;;;;;;;19.58;48.46;100537.88;2060502;28;2629;-68
2023/12/28 04:53:47;;;;;;;;;;;;;;;19.57;48.49;100542.91;2059859;28;2608;-68
2023/12/28 04:54:48;;;;;;;;;;;;;;;19.57;48.46;100540.03;2061247;28;2231;-68
2023/12/28 04:55:49;;;;;;;;;;;;;;;19.57;48.44;100540.03;2061772;28;1576;-68
2023/12/28 04:56:51;;;;;;;;;;;;;;;19.58;48.54;100540.75;2058449;28;2568;-68
2023/12/28 04:57:52;;;;;;;;;;;;;;;19.58;48.51;100543.63;2060269;28;2282;-68
2023/12/28 04:58:54;;;;;;;;;;;;;;;19.56;48.72;100538.56;2060587;28;2220;-68
2023/12/28 04:59:55;;;;;;;;;;;;;;;19.58;48.48;100555.13;2059931;28;2132;-68
2023/12/28 05:00:57;;;;;;;;;;;;;;;19.57;48.59;100548.63;2059009;28;6320;-68
2023/12/28 05:01:58;;;;;;;;;;;;;;;19.56;48.36;100550.03;2059878;28;2174;-68
2023/12/28 05:03:00;;;;;;;;;;;;;;;19.57;48.50;100542.16;2059182;28;2034;-68
2023/12/28 05:04:01;;;;;;;;;;;;;;;19.55;48.49;100539.19;2059809;28;2486;-69
2023/12/28 05:05:03;;;;;;;;;;;;;;;19.56;48.52;100546.41;2061542;28;2579;-68
2023/12/28 05:06:04;;;;;;;;;;;;;;;19.55;48.44;100556.44;2060264;28;1643;-68
2023/12/28 05:07:05;;;;;;;;;;;;;;;19.55;48.44;100562.91;2055359;28;2086;-69
2023/12/28 05:08:07;;;;;;;;;;;;;;;19.55;48.59;100559.31;2059387;28;2375;-68
2023/12/28 05:09:08;;;;;;;;;;;;;;;19.55;48.63;100556.44;2059907;28;2130;-68
2023/12/28 05:10:10;;;;;;;;;;;;;;;19.54;48.59;100558.56;2060353;28;2046;-68
2023/12/28 05:11:11;;;;;;;;;;;;;;;19.54;48.63;100560.69;2060350;28;2153;-69
2023/12/28 05:12:13;;;;;;;;;;;;;;;19.55;48.46;100559.31;2057613;28;2657;-69
2023/12/28 05:13:14;;;;;;;;;;;;;;;19.54;48.45;100564.31;2059148;28;2382;-69
2023/12/28 05:14:15;;;;;;;;;;;;;;;19.56;48.58;100569.38;2059424;28;2530;-69
2023/12/28 05:15:19;;;;;;;;;;;;;;;19.55;48.46;100565.78;2059045;28;2544;-68
2023/12/28 05:16:21;;;;;;;;;;;;;;;19.55;48.64;100562.91;2059592;28;2472;-68
2023/12/28 05:17:22;;;;;;;;;;;;;;;19.55;48.57;100562.91;2061613;28;2334;-68
2023/12/28 05:18:24;;;;;;;;;;;;;;;19.57;48.47;100565.88;2063259;28;2042;-68
2023/12/28 05:19:25;;;;;;;;;;;;;;;19.56;48.51;100564.41;2056932;28;2416;-68
2023/12/28 05:20:27;;;;;;;;;;;;;;;19.56;48.65;100564.41;2059173;28;2153;-68
2023/12/28 05:21:28;;;;;;;;;;;;;;;19.56;48.61;100575.91;2061562;28;2113;-68